Terminal Aerodrome Forecast
Issued by NWS

Home | Current Version | Previous Version | Text Only | Print | Product List | Glossary Off
Versions: 1 2 3 4 5 6 7 8 9 10 11 12 13 14 15 16

000
FTUS43 KTOP 011138
TAFMHK
TAF
KMHK 011138Z 0112/0212 11006KT P6SM BKN150
     FM011500 21009KT P6SM BKN120
     FM012000 30007KT P6SM BKN250
     FM020000 02005KT P6SM SCT025 BKN050=

USA.gov is the U.S. government's official web portal to all federal, state and local government web resources and services.